createdAt,value
2023-05-15T00:11:58.604Z,13.04
2023-05-15T00:40:18.789Z,12.6
2023-05-15T01:08:39.798Z,12.71
2023-05-15T01:37:02.815Z,12.56
2023-05-15T02:05:26.158Z,12.45
2023-05-15T02:33:36.272Z,12.1
2023-05-15T03:01:59.413Z,11.94
2023-05-15T03:30:20.961Z,11.9
2023-05-15T03:58:45.418Z,12.14
2023-05-15T04:27:00.291Z,11.79
2023-05-15T04:55:17.103Z,12.04
2023-05-15T05:23:44.371Z,12.76
2023-05-15T05:52:13.034Z,15.72
2023-05-15T06:20:33.923Z,17.67
2023-05-15T06:48:55.290Z,18.13
2023-05-15T07:17:02.726Z,15.66
2023-05-15T07:45:37.083Z,16.81
2023-05-15T08:14:20.562Z,20.46
2023-05-15T08:43:14.783Z,19.63
2023-05-15T09:11:23.555Z,20.36
2023-05-15T09:39:50.714Z,21.42
2023-05-15T10:08:25.422Z,23.75
2023-05-15T10:37:07.935Z,25
2023-05-15T11:05:04.691Z,20.97
2023-05-15T11:33:21.489Z,22.02
2023-05-15T12:01:46.113Z,21.46
2023-05-15T12:30:30.930Z,17.13
2023-05-15T12:58:51.526Z,14.27
2023-05-15T13:28:07.220Z,16.52
2023-05-15T13:57:11.741Z,16.64
2023-05-15T14:26:01.236Z,15.81
2023-05-15T14:55:10.407Z,16.28
2023-05-15T15:23:55.187Z,17.05
2023-05-15T15:52:59.392Z,17.63
2023-05-15T16:22:07.023Z,17.73
2023-05-15T16:51:00.447Z,17.58
2023-05-15T17:19:37.057Z,16.75
2023-05-15T17:48:25.290Z,16.66
2023-05-15T18:17:23.163Z,16.75
2023-05-15T18:46:17.618Z,16.56
2023-05-15T19:15:10.908Z,16.15
2023-05-15T19:43:55.759Z,15.59
2023-05-15T20:12:46.635Z,15.11
2023-05-15T20:41:40.727Z,14.51
2023-05-15T21:10:41.197Z,14.43
2023-05-15T21:39:45.798Z,14.77
2023-05-15T22:08:47.911Z,14.27
2023-05-15T22:37:39.365Z,13.84
2023-05-15T23:06:41.249Z,13.55
2023-05-15T23:35:39.729Z,13.35
